sensor_id;sensor_type;location;lat;lon;timestamp;pressure;altitude;pressure_sealevel;temperature;humidity
25510;BME280;13413;52.336;21.200;2023-04-28T00:00:27;100950.14;;;5.39;60.80
25510;BME280;13413;52.336;21.200;2023-04-28T00:03:19;100948.37;;;5.40;60.59
25510;BME280;13413;52.336;21.200;2023-04-28T00:06:11;100946.73;;;5.32;60.77
25510;BME280;13413;52.336;21.200;2023-04-28T00:09:03;100944.28;;;5.30;60.50
25510;BME280;13413;52.336;21.200;2023-04-28T00:11:55;100944.70;;;5.27;60.54
25510;BME280;13413;52.336;21.200;2023-04-28T00:14:48;100946.93;;;5.26;60.77
25510;BME280;13413;52.336;21.200;2023-04-28T00:17:40;100948.30;;;5.17;60.77
25510;BME280;13413;52.336;21.200;2023-04-28T00:20:33;100948.44;;;5.10;60.81
25510;BME280;13413;52.336;21.200;2023-04-28T00:23:25;100950.05;;;5.11;60.90
25510;BME280;13413;52.336;21.200;2023-04-28T00:26:17;100947.63;;;5.08;60.79
25510;BME280;13413;52.336;21.200;2023-04-28T00:32:15;100951.29;;;4.82;61.19
25510;BME280;13413;52.336;21.200;2023-04-28T00:35:08;100947.91;;;4.82;61.24
25510;BME280;13413;52.336;21.200;2023-04-28T00:38:00;100951.89;;;4.85;61.31
25510;BME280;13413;52.336;21.200;2023-04-28T00:40:52;100953.83;;;4.87;61.09
25510;BME280;13413;52.336;21.200;2023-04-28T00:43:45;100953.47;;;4.85;61.29
25510;BME280;13413;52.336;21.200;2023-04-28T00:46:37;100951.82;;;4.79;61.16
25510;BME280;13413;52.336;21.200;2023-04-28T00:49:29;100954.61;;;4.77;61.44
25510;BME280;13413;52.336;21.200;2023-04-28T00:52:21;100957.75;;;4.86;61.78
25510;BME280;13413;52.336;21.200;2023-04-28T00:55:14;100964.05;;;4.84;61.33
25510;BME280;13413;52.336;21.200;2023-04-28T00:58:06;100960.98;;;4.81;61.61
25510;BME280;13413;52.336;21.200;2023-04-28T01:01:02;100962.61;;;4.78;61.42
25510;BME280;13413;52.336;21.200;2023-04-28T01:03:54;100960.50;;;4.67;61.34
25510;BME280;13413;52.336;21.200;2023-04-28T01:06:48;100958.59;;;4.52;61.43
25510;BME280;13413;52.336;21.200;2023-04-28T01:09:41;100959.76;;;4.37;61.64
25510;BME280;13413;52.336;21.200;2023-04-28T01:12:33;100965.86;;;4.35;61.88
25510;BME280;13413;52.336;21.200;2023-04-28T01:15:25;100961.88;;;4.37;61.80
25510;BME280;13413;52.336;21.200;2023-04-28T01:18:21;100968.40;;;4.36;61.93
25510;BME280;13413;52.336;21.200;2023-04-28T01:21:14;100964.85;;;4.28;62.09
25510;BME280;13413;52.336;21.200;2023-04-28T01:24:17;100967.55;;;4.16;62.01
25510;BME280;13413;52.336;21.200;2023-04-28T01:27:09;100966.30;;;3.98;61.85
25510;BME280;13413;52.336;21.200;2023-04-28T01:30:02;100970.40;;;3.95;62.34
25510;BME280;13413;52.336;21.200;2023-04-28T01:32:54;100969.56;;;3.99;62.44
25510;BME280;13413;52.336;21.200;2023-04-28T01:35:46;100970.89;;;4.09;62.66
25510;BME280;13413;52.336;21.200;2023-04-28T01:38:38;100967.40;;;4.02;62.31
25510;BME280;13413;52.336;21.200;2023-04-28T01:41:31;100967.06;;;3.77;62.49
25510;BME280;13413;52.336;21.200;2023-04-28T01:47:13;100975.09;;;3.75;62.80
25510;BME280;13413;52.336;21.200;2023-04-28T01:50:06;100978.05;;;3.87;63.06
25510;BME280;13413;52.336;21.200;2023-04-28T01:52:58;100979.25;;;3.96;62.85
25510;BME280;13413;52.336;21.200;2023-04-28T01:55:50;100981.11;;;3.99;62.66
25510;BME280;13413;52.336;21.200;2023-04-28T01:58:42;100980.09;;;3.92;62.80
25510;BME280;13413;52.336;21.200;2023-04-28T02:01:34;100976.89;;;3.93;62.46
25510;BME280;13413;52.336;21.200;2023-04-28T02:04:27;100974.91;;;3.85;62.76
25510;BME280;13413;52.336;21.200;2023-04-28T02:07:19;100973.95;;;3.88;62.76
25510;BME280;13413;52.336;21.200;2023-04-28T02:10:11;100978.42;;;3.87;62.80
25510;BME280;13413;52.336;21.200;2023-04-28T02:13:04;100977.54;;;3.91;63.00
25510;BME280;13413;52.336;21.200;2023-04-28T02:15:58;100978.54;;;3.94;62.78
25510;BME280;13413;52.336;21.200;2023-04-28T02:18:51;100974.71;;;3.94;62.96
25510;BME280;13413;52.336;21.200;2023-04-28T02:21:43;100977.97;;;3.95;62.89
25510;BME280;13413;52.336;21.200;2023-04-28T02:24:36;100977.86;;;3.94;62.82
25510;BME280;13413;52.336;21.200;2023-04-28T02:27:28;100982.92;;;3.80;62.66
25510;BME280;13413;52.336;21.200;2023-04-28T02:30:20;100981.48;;;3.74;62.90
25510;BME280;13413;52.336;21.200;2023-04-28T02:33:13;100981.32;;;3.81;63.18
25510;BME280;13413;52.336;21.200;2023-04-28T02:36:07;100981.31;;;3.86;63.17
25510;BME280;13413;52.336;21.200;2023-04-28T02:38:59;100984.29;;;3.81;62.85
25510;BME280;13413;52.336;21.200;2023-04-28T02:41:52;100988.42;;;3.89;63.43
25510;BME280;13413;52.336;21.200;2023-04-28T02:44:45;100988.82;;;3.93;63.30
25510;BME280;13413;52.336;21.200;2023-04-28T02:47:38;100983.57;;;3.81;62.92
25510;BME280;13413;52.336;21.200;2023-04-28T02:50:30;100983.29;;;3.59;63.03
25510;BME280;13413;52.336;21.200;2023-04-28T02:53:23;100980.66;;;3.37;63.27
25510;BME280;13413;52.336;21.200;2023-04-28T02:56:16;100984.23;;;3.33;63.44
25510;BME280;13413;52.336;21.200;2023-04-28T02:59:08;100987.15;;;3.46;63.69
25510;BME280;13413;52.336;21.200;2023-04-28T03:02:00;100989.71;;;3.56;63.46
25510;BME280;13413;52.336;21.200;2023-04-28T03:04:53;100991.20;;;3.64;63.66
25510;BME280;13413;52.336;21.200;2023-04-28T03:07:46;100991.50;;;3.71;63.58
25510;BME280;13413;52.336;21.200;2023-04-28T03:10:38;100990.92;;;3.79;63.60
25510;BME280;13413;52.336;21.200;2023-04-28T03:13:30;100987.33;;;3.75;62.97
25510;BME280;13413;52.336;21.200;2023-04-28T03:16:22;100991.08;;;3.63;63.21
25510;BME280;13413;52.336;21.200;2023-04-28T03:19:15;100988.02;;;3.50;63.11
25510;BME280;13413;52.336;21.200;2023-04-28T03:22:07;100990.88;;;3.40;63.25
25510;BME280;13413;52.336;21.200;2023-04-28T03:24:59;100993.77;;;3.35;63.42
25510;BME280;13413;52.336;21.200;2023-04-28T03:27:51;100991.90;;;3.29;63.23
25510;BME280;13413;52.336;21.200;2023-04-28T03:30:43;100995.59;;;3.38;63.66
25510;BME280;13413;52.336;21.200;2023-04-28T03:33:35;100999.96;;;3.49;63.81
25510;BME280;13413;52.336;21.200;2023-04-28T03:36:28;101000.02;;;3.58;63.90
25510;BME280;13413;52.336;21.200;2023-04-28T03:39:20;101002.52;;;3.71;63.65
25510;BME280;13413;52.336;21.200;2023-04-28T03:42:13;101003.48;;;3.72;63.56
25510;BME280;13413;52.336;21.200;2023-04-28T03:45:07;101004.15;;;3.75;63.72
25510;BME280;13413;52.336;21.200;2023-04-28T03:47:59;101004.33;;;3.80;63.72
25510;BME280;13413;52.336;21.200;2023-04-28T03:50:52;101005.52;;;3.80;63.36
25510;BME280;13413;52.336;21.200;2023-04-28T03:56:54;101003.48;;;3.61;63.18
25510;BME280;13413;52.336;21.200;2023-04-28T03:59:50;101004.60;;;3.55;63.67
25510;BME280;13413;52.336;21.200;2023-04-28T04:08:16;101008.77;;;3.67;63.79
25510;BME280;13413;52.336;21.200;2023-04-28T04:11:08;101013.08;;;3.68;64.20
25510;BME280;13413;52.336;21.200;2023-04-28T04:14:00;101013.65;;;3.81;64.14
25510;BME280;13413;52.336;21.200;2023-04-28T04:16:52;101016.54;;;3.89;63.95
25510;BME280;13413;52.336;21.200;2023-04-28T04:19:44;101014.98;;;3.89;64.05
25510;BME280;13413;52.336;21.200;2023-04-28T04:22:36;101017.73;;;3.88;64.24
25510;BME280;13413;52.336;21.200;2023-04-28T04:25:28;101016.95;;;3.82;64.28
25510;BME280;13413;52.336;21.200;2023-04-28T04:28:21;101017.64;;;3.84;64.51
25510;BME280;13413;52.336;21.200;2023-04-28T04:31:13;101017.29;;;3.89;64.81
25510;BME280;13413;52.336;21.200;2023-04-28T04:34:06;101017.27;;;3.98;64.97
25510;BME280;13413;52.336;21.200;2023-04-28T04:36:59;101021.50;;;4.15;65.00
25510;BME280;13413;52.336;21.200;2023-04-28T04:39:51;101022.34;;;4.32;64.94
25510;BME280;13413;52.336;21.200;2023-04-28T04:42:43;101020.20;;;4.45;64.92
25510;BME280;13413;52.336;21.200;2023-04-28T04:45:36;101020.33;;;4.63;64.82
25510;BME280;13413;52.336;21.200;2023-04-28T04:48:28;101015.61;;;4.75;64.86
25510;BME280;13413;52.336;21.200;2023-04-28T04:51:19;101020.37;;;4.85;64.73
25510;BME280;13413;52.336;21.200;2023-04-28T04:54:11;101023.15;;;4.98;64.90
25510;BME280;13413;52.336;21.200;2023-04-28T04:57:04;101025.30;;;5.15;64.85
25510;BME280;13413;52.336;21.200;2023-04-28T05:00:00;101024.79;;;5.30;64.61
25510;BME280;13413;52.336;21.200;2023-04-28T05:02:53;101024.92;;;5.39;64.57
25510;BME280;13413;52.336;21.200;2023-04-28T05:05:45;101027.37;;;5.47;64.61
25510;BME280;13413;52.336;21.200;2023-04-28T05:08:37;101028.13;;;5.55;64.54
25510;BME280;13413;52.336;21.200;2023-04-28T05:11:30;101033.45;;;5.61;64.65
25510;BME280;13413;52.336;21.200;2023-04-28T05:14:22;101031.11;;;5.68;64.61
25510;BME280;13413;52.336;21.200;2023-04-28T05:17:15;101032.26;;;5.71;64.84
25510;BME280;13413;52.336;21.200;2023-04-28T05:20:09;101034.50;;;5.73;64.69
25510;BME280;13413;52.336;21.200;2023-04-28T05:23:01;101035.52;;;5.80;64.53
25510;BME280;13413;52.336;21.200;2023-04-28T05:25:54;101034.58;;;5.89;64.47
25510;BME280;13413;52.336;21.200;2023-04-28T05:28:47;101034.63;;;5.99;64.25
25510;BME280;13413;52.336;21.200;2023-04-28T05:31:39;101037.65;;;6.09;64.05
25510;BME280;13413;52.336;21.200;2023-04-28T05:34:32;101037.05;;;6.20;63.98
25510;BME280;13413;52.336;21.200;2023-04-28T05:37:25;101041.48;;;6.29;63.69
25510;BME280;13413;52.336;21.200;2023-04-28T05:40:18;101036.23;;;6.39;63.77
25510;BME280;13413;52.336;21.200;2023-04-28T05:43:11;101036.10;;;6.49;63.50
25510;BME280;13413;52.336;21.200;2023-04-28T05:48:57;101035.96;;;6.75;63.27
25510;BME280;13413;52.336;21.200;2023-04-28T05:51:49;101038.27;;;6.86;63.14
25510;BME280;13413;52.336;21.200;2023-04-28T05:54:41;101037.48;;;6.97;62.86
25510;BME280;13413;52.336;21.200;2023-04-28T05:57:34;101039.65;;;7.06;62.42
25510;BME280;13413;52.336;21.200;2023-04-28T06:00:26;101042.31;;;7.16;62.23
25510;BME280;13413;52.336;21.200;2023-04-28T06:03:19;101044.02;;;7.26;62.28
25510;BME280;13413;52.336;21.200;2023-04-28T06:06:11;101042.80;;;7.37;62.22
25510;BME280;13413;52.336;21.200;2023-04-28T06:09:04;101048.02;;;7.50;62.00
25510;BME280;13413;52.336;21.200;2023-04-28T06:11:57;101049.20;;;7.62;61.80
25510;BME280;13413;52.336;21.200;2023-04-28T06:14:50;101053.06;;;7.75;61.57
25510;BME280;13413;52.336;21.200;2023-04-28T06:17:42;101050.82;;;7.88;61.29
25510;BME280;13413;52.336;21.200;2023-04-28T06:20:34;101051.75;;;7.99;61.31
25510;BME280;13413;52.336;21.200;2023-04-28T06:35:05;101054.95;;;8.64;58.97
25510;BME280;13413;52.336;21.200;2023-04-28T06:37:57;101056.41;;;8.69;59.29
25510;BME280;13413;52.336;21.200;2023-04-28T06:40:49;101057.65;;;8.82;58.73
25510;BME280;13413;52.336;21.200;2023-04-28T06:43:41;101061.52;;;8.95;58.35
25510;BME280;13413;52.336;21.200;2023-04-28T06:46:33;101058.95;;;9.05;57.32
25510;BME280;13413;52.336;21.200;2023-04-28T06:49:27;101058.27;;;9.12;57.70
25510;BME280;13413;52.336;21.200;2023-04-28T06:52:20;101054.52;;;9.23;58.52
25510;BME280;13413;52.336;21.200;2023-04-28T06:55:15;101055.89;;;9.38;56.63
25510;BME280;13413;52.336;21.200;2023-04-28T06:58:08;101057.36;;;9.50;55.74
25510;BME280;13413;52.336;21.200;2023-04-28T07:01:01;101056.69;;;9.58;55.70
25510;BME280;13413;52.336;21.200;2023-04-28T07:03:53;101063.48;;;9.66;55.34
25510;BME280;13413;52.336;21.200;2023-04-28T07:06:46;101060.60;;;9.73;54.86
25510;BME280;13413;52.336;21.200;2023-04-28T07:09:38;101063.06;;;9.88;54.88
25510;BME280;13413;52.336;21.200;2023-04-28T07:12:31;101061.11;;;9.96;55.18
25510;BME280;13413;52.336;21.200;2023-04-28T07:15:24;101060.39;;;10.10;54.83
25510;BME280;13413;52.336;21.200;2023-04-28T07:18:17;101062.06;;;10.22;52.79
25510;BME280;13413;52.336;21.200;2023-04-28T07:21:08;101057.70;;;10.35;53.86
25510;BME280;13413;52.336;21.200;2023-04-28T07:24:01;101052.14;;;10.43;51.88
25510;BME280;13413;52.336;21.200;2023-04-28T07:26:54;101047.88;;;10.46;52.52
25510;BME280;13413;52.336;21.200;2023-04-28T07:29:45;101047.86;;;10.55;52.15
25510;BME280;13413;52.336;21.200;2023-04-28T07:32:38;101044.60;;;10.69;51.31
25510;BME280;13413;52.336;21.200;2023-04-28T07:35:31;101047.13;;;10.84;51.39
25510;BME280;13413;52.336;21.200;2023-04-28T07:41:16;101040.46;;;10.97;49.52
25510;BME280;13413;52.336;21.200;2023-04-28T07:44:08;101035.23;;;11.04;49.97
25510;BME280;13413;52.336;21.200;2023-04-28T07:47:01;101029.64;;;11.19;50.19
25510;BME280;13413;52.336;21.200;2023-04-28T07:49:54;101029.90;;;11.31;49.81
25510;BME280;13413;52.336;21.200;2023-04-28T07:52:45;101027.39;;;11.44;49.84
25510;BME280;13413;52.336;21.200;2023-04-28T07:55:37;101025.41;;;11.66;49.30
25510;BME280;13413;52.336;21.200;2023-04-28T07:58:29;101027.50;;;11.78;48.79
25510;BME280;13413;52.336;21.200;2023-04-28T08:01:22;101029.09;;;11.78;48.19
25510;BME280;13413;52.336;21.200;2023-04-28T08:04:15;101027.17;;;11.69;48.01
25510;BME280;13413;52.336;21.200;2023-04-28T08:07:08;101025.54;;;11.63;47.17
25510;BME280;13413;52.336;21.200;2023-04-28T08:10:01;101022.78;;;11.65;47.04
25510;BME280;13413;52.336;21.200;2023-04-28T08:12:54;101023.44;;;11.90;47.26
25510;BME280;13413;52.336;21.200;2023-04-28T08:15:47;101022.95;;;12.09;46.47
25510;BME280;13413;52.336;21.200;2023-04-28T08:18:40;101021.05;;;11.97;45.50
25510;BME280;13413;52.336;21.200;2023-04-28T08:21:33;101026.86;;;11.80;44.89
25510;BME280;13413;52.336;21.200;2023-04-28T08:24:26;101022.45;;;11.67;44.07
25510;BME280;13413;52.336;21.200;2023-04-28T08:27:18;101021.58;;;11.63;44.93
25510;BME280;13413;52.336;21.200;2023-04-28T08:30:11;101023.59;;;11.66;44.42
25510;BME280;13413;52.336;21.200;2023-04-28T08:33:04;101020.32;;;11.67;44.25
25510;BME280;13413;52.336;21.200;2023-04-28T08:35:57;101016.89;;;11.71;44.73
25510;BME280;13413;52.336;21.200;2023-04-28T08:38:50;101016.98;;;11.93;44.58
25510;BME280;13413;52.336;21.200;2023-04-28T08:41:42;101016.17;;;12.16;43.60
25510;BME280;13413;52.336;21.200;2023-04-28T08:44:37;101013.27;;;12.35;44.07
25510;BME280;13413;52.336;21.200;2023-04-28T08:52:59;101004.80;;;12.76;39.65
25510;BME280;13413;52.336;21.200;2023-04-28T08:55:55;100999.77;;;12.78;38.24
25510;BME280;13413;52.336;21.200;2023-04-28T08:58:48;101000.70;;;12.67;38.69
25510;BME280;13413;52.336;21.200;2023-04-28T09:01:41;101003.07;;;12.61;37.60
25510;BME280;13413;52.336;21.200;2023-04-28T09:04:33;100995.94;;;12.78;37.82
25510;BME280;13413;52.336;21.200;2023-04-28T09:07:24;100986.67;;;13.05;37.86
25510;BME280;13413;52.336;21.200;2023-04-28T09:10:17;100985.29;;;13.22;37.13
25510;BME280;13413;52.336;21.200;2023-04-28T09:13:11;100983.66;;;13.45;36.82
25510;BME280;13413;52.336;21.200;2023-04-28T09:16:15;100985.13;;;13.31;36.70
25510;BME280;13413;52.336;21.200;2023-04-28T09:19:07;100978.96;;;13.12;36.35
25510;BME280;13413;52.336;21.200;2023-04-28T09:22:00;100986.30;;;12.93;35.89
25510;BME280;13413;52.336;21.200;2023-04-28T09:24:53;100983.58;;;12.77;36.17
25510;BME280;13413;52.336;21.200;2023-04-28T09:27:45;100982.66;;;12.71;36.40
25510;BME280;13413;52.336;21.200;2023-04-28T09:30:38;100984.39;;;12.68;36.29
25510;BME280;13413;52.336;21.200;2023-04-28T09:33:30;100980.84;;;12.62;35.67
25510;BME280;13413;52.336;21.200;2023-04-28T09:36:26;100977.42;;;12.79;35.74
25510;BME280;13413;52.336;21.200;2023-04-28T09:39:28;100972.85;;;13.37;36.57
25510;BME280;13413;52.336;21.200;2023-04-28T09:42:34;100970.95;;;14.01;35.04
25510;BME280;13413;52.336;21.200;2023-04-28T09:45:27;100970.98;;;14.18;34.58
25510;BME280;13413;52.336;21.200;2023-04-28T09:48:30;100963.02;;;13.94;34.50
25510;BME280;13413;52.336;21.200;2023-04-28T09:51:22;100958.06;;;13.82;35.55
25510;BME280;13413;52.336;21.200;2023-04-28T09:54:15;100958.73;;;13.87;34.26
25510;BME280;13413;52.336;21.200;2023-04-28T09:57:08;100956.52;;;13.94;34.21
25510;BME280;13413;52.336;21.200;2023-04-28T10:00:02;100949.34;;;14.32;33.09
25510;BME280;13413;52.336;21.200;2023-04-28T10:02:55;100946.70;;;14.28;33.16
25510;BME280;13413;52.336;21.200;2023-04-28T10:05:48;100946.23;;;14.44;32.83
25510;BME280;13413;52.336;21.200;2023-04-28T10:08:40;100942.55;;;14.72;32.51
25510;BME280;13413;52.336;21.200;2023-04-28T10:11:33;100937.55;;;14.90;32.42
25510;BME280;13413;52.336;21.200;2023-04-28T10:14:26;100931.70;;;14.79;32.50
25510;BME280;13413;52.336;21.200;2023-04-28T10:17:19;100930.48;;;14.52;32.67
25510;BME280;13413;52.336;21.200;2023-04-28T10:20:13;100935.38;;;14.25;32.57
25510;BME280;13413;52.336;21.200;2023-04-28T10:23:09;100927.40;;;14.01;32.76
25510;BME280;13413;52.336;21.200;2023-04-28T10:26:09;100927.42;;;13.86;32.87
25510;BME280;13413;52.336;21.200;2023-04-28T10:29:03;100923.95;;;14.01;33.06
25510;BME280;13413;52.336;21.200;2023-04-28T10:38:10;100916.34;;;15.84;32.91
25510;BME280;13413;52.336;21.200;2023-04-28T10:41:02;100917.79;;;16.20;32.30
25510;BME280;13413;52.336;21.200;2023-04-28T10:43:55;100913.84;;;16.66;32.18
25510;BME280;13413;52.336;21.200;2023-04-28T10:47:00;100909.42;;;16.95;31.77
25510;BME280;13413;52.336;21.200;2023-04-28T10:50:04;100908.30;;;16.86;32.15
25510;BME280;13413;52.336;21.200;2023-04-28T10:52:57;100900.86;;;16.50;30.75
25510;BME280;13413;52.336;21.200;2023-04-28T10:55:49;100902.34;;;15.70;31.43
25510;BME280;13413;52.336;21.200;2023-04-28T10:58:56;100903.45;;;15.34;32.46
25510;BME280;13413;52.336;21.200;2023-04-28T11:01:49;100897.91;;;15.34;32.67
25510;BME280;13413;52.336;21.200;2023-04-28T11:16:55;100885.71;;;15.58;31.69
25510;BME280;13413;52.336;21.200;2023-04-28T11:19:48;100880.60;;;15.23;31.86
25510;BME280;13413;52.336;21.200;2023-04-28T11:22:41;100880.10;;;15.13;32.18
25510;BME280;13413;52.336;21.200;2023-04-28T11:28:47;100875.77;;;14.85;31.71
25510;BME280;13413;52.336;21.200;2023-04-28T11:31:39;100872.88;;;14.84;31.98
25510;BME280;13413;52.336;21.200;2023-04-28T11:34:32;100872.23;;;15.20;31.66
25510;BME280;13413;52.336;21.200;2023-04-28T11:37:25;100865.53;;;15.68;32.55
25510;BME280;13413;52.336;21.200;2023-04-28T11:40:19;100859.70;;;15.98;30.97
25510;BME280;13413;52.336;21.200;2023-04-28T11:43:11;100864.53;;;15.86;30.60
25510;BME280;13413;52.336;21.200;2023-04-28T11:46:04;100865.02;;;15.85;30.99
25510;BME280;13413;52.336;21.200;2023-04-28T11:49:01;100862.45;;;15.88;30.56
25510;BME280;13413;52.336;21.200;2023-04-28T11:51:54;100858.27;;;15.79;30.83
25510;BME280;13413;52.336;21.200;2023-04-28T11:54:51;100853.35;;;16.04;31.05
25510;BME280;13413;52.336;21.200;2023-04-28T11:57:44;100850.89;;;16.37;30.64
25510;BME280;13413;52.336;21.200;2023-04-28T12:00:36;100850.87;;;16.43;30.70
25510;BME280;13413;52.336;21.200;2023-04-28T12:03:28;100854.56;;;16.51;30.57
25510;BME280;13413;52.336;21.200;2023-04-28T12:06:21;100856.66;;;16.29;29.94
25510;BME280;13413;52.336;21.200;2023-04-28T12:09:18;100857.67;;;15.95;30.34
25510;BME280;13413;52.336;21.200;2023-04-28T12:12:13;100850.80;;;15.73;30.65
25510;BME280;13413;52.336;21.200;2023-04-28T12:15:06;100838.84;;;16.02;30.74
25510;BME280;13413;52.336;21.200;2023-04-28T12:17:58;100837.86;;;16.09;30.03
25510;BME280;13413;52.336;21.200;2023-04-28T12:21:00;100829.93;;;16.17;30.33
25510;BME280;13413;52.336;21.200;2023-04-28T12:23:53;100835.57;;;16.12;29.54
25510;BME280;13413;52.336;21.200;2023-04-28T12:26:45;100834.27;;;15.85;29.77
25510;BME280;13413;52.336;21.200;2023-04-28T12:29:39;100831.30;;;15.98;30.72
25510;BME280;13413;52.336;21.200;2023-04-28T12:32:38;100826.04;;;16.23;30.03
25510;BME280;13413;52.336;21.200;2023-04-28T12:35:30;100830.12;;;16.22;29.84
25510;BME280;13413;52.336;21.200;2023-04-28T12:38:22;100828.58;;;16.06;30.14
25510;BME280;13413;52.336;21.200;2023-04-28T12:41:15;100822.55;;;15.85;30.50
25510;BME280;13413;52.336;21.200;2023-04-28T12:44:07;100817.02;;;15.84;30.41
25510;BME280;13413;52.336;21.200;2023-04-28T12:47:00;100810.02;;;15.80;30.68
25510;BME280;13413;52.336;21.200;2023-04-28T12:49:52;100796.98;;;16.03;31.24
25510;BME280;13413;52.336;21.200;2023-04-28T12:52:45;100794.14;;;16.54;31.46
25510;BME280;13413;52.336;21.200;2023-04-28T12:55:37;100793.06;;;16.79;30.58
25510;BME280;13413;52.336;21.200;2023-04-28T12:58:29;100794.98;;;16.89;30.97
25510;BME280;13413;52.336;21.200;2023-04-28T13:01:21;100790.21;;;17.11;30.16
25510;BME280;13413;52.336;21.200;2023-04-28T13:04:14;100788.66;;;16.93;30.03
25510;BME280;13413;52.336;21.200;2023-04-28T13:07:07;100792.54;;;16.79;29.68
25510;BME280;13413;52.336;21.200;2023-04-28T13:10:00;100795.50;;;16.75;29.49
25510;BME280;13413;52.336;21.200;2023-04-28T13:12:52;100788.39;;;16.63;29.34
25510;BME280;13413;52.336;21.200;2023-04-28T13:15:45;100786.11;;;16.56;29.62
25510;BME280;13413;52.336;21.200;2023-04-28T13:18:38;100783.39;;;16.36;29.60
25510;BME280;13413;52.336;21.200;2023-04-28T13:21:30;100783.55;;;16.14;29.79
25510;BME280;13413;52.336;21.200;2023-04-28T13:27:16;100778.63;;;15.83;30.31
25510;BME280;13413;52.336;21.200;2023-04-28T13:32:54;100773.88;;;15.81;30.44
25510;BME280;13413;52.336;21.200;2023-04-28T13:35:47;100770.70;;;16.14;30.46
25510;BME280;13413;52.336;21.200;2023-04-28T13:38:39;100769.57;;;16.37;30.22
25510;BME280;13413;52.336;21.200;2023-04-28T13:41:31;100768.85;;;16.41;30.04
25510;BME280;13413;52.336;21.200;2023-04-28T13:44:23;100765.66;;;16.17;29.70
25510;BME280;13413;52.336;21.200;2023-04-28T13:47:16;100761.17;;;16.05;30.14
25510;BME280;13413;52.336;21.200;2023-04-28T13:50:09;100761.71;;;16.19;29.85
25510;BME280;13413;52.336;21.200;2023-04-28T13:53:01;100753.90;;;16.46;30.46
25510;BME280;13413;52.336;21.200;2023-04-28T13:55:53;100744.77;;;16.54;29.66
25510;BME280;13413;52.336;21.200;2023-04-28T13:58:45;100745.98;;;16.43;29.87
25510;BME280;13413;52.336;21.200;2023-04-28T14:01:37;100746.74;;;16.30;30.01
25510;BME280;13413;52.336;21.200;2023-04-28T14:07:22;100742.26;;;16.26;29.81
25510;BME280;13413;52.336;21.200;2023-04-28T14:10:14;100739.39;;;16.39;30.09
25510;BME280;13413;52.336;21.200;2023-04-28T14:13:06;100739.79;;;16.40;30.04
25510;BME280;13413;52.336;21.200;2023-04-28T14:15:58;100741.61;;;16.36;29.82
25510;BME280;13413;52.336;21.200;2023-04-28T14:18:50;100739.64;;;16.17;29.86
25510;BME280;13413;52.336;21.200;2023-04-28T14:21:42;100738.30;;;15.98;30.16
25510;BME280;13413;52.336;21.200;2023-04-28T14:27:26;100725.85;;;15.81;30.19
25510;BME280;13413;52.336;21.200;2023-04-28T14:30:18;100727.49;;;15.88;30.62
25510;BME280;13413;52.336;21.200;2023-04-28T14:33:11;100722.18;;;15.89;30.60
25510;BME280;13413;52.336;21.200;2023-04-28T14:36:03;100718.34;;;15.96;30.33
25510;BME280;13413;52.336;21.200;2023-04-28T14:38:56;100715.48;;;15.90;30.33
25510;BME280;13413;52.336;21.200;2023-04-28T14:41:49;100713.04;;;15.78;30.23
25510;BME280;13413;52.336;21.200;2023-04-28T14:44:41;100711.70;;;15.69;30.29
25510;BME280;13413;52.336;21.200;2023-04-28T14:47:33;100707.02;;;15.63;30.16
25510;BME280;13413;52.336;21.200;2023-04-28T14:50:27;100708.23;;;15.78;30.67
25510;BME280;13413;52.336;21.200;2023-04-28T14:53:19;100707.64;;;15.84;30.48
25510;BME280;13413;52.336;21.200;2023-04-28T14:56:12;100710.70;;;15.73;30.66
25510;BME280;13413;52.336;21.200;2023-04-28T14:59:04;100712.20;;;15.75;30.69
25510;BME280;13413;52.336;21.200;2023-04-28T15:01:56;100713.74;;;15.87;30.83
25510;BME280;13413;52.336;21.200;2023-04-28T15:04:48;100706.95;;;16.05;30.66
25510;BME280;13413;52.336;21.200;2023-04-28T15:07:41;100701.28;;;16.14;30.52
25510;BME280;13413;52.336;21.200;2023-04-28T15:10:37;100698.69;;;16.13;30.27
25510;BME280;13413;52.336;21.200;2023-04-28T15:13:29;100692.60;;;16.14;30.88
25510;BME280;13413;52.336;21.200;2023-04-28T15:16:21;100686.94;;;16.30;30.71
25510;BME280;13413;52.336;21.200;2023-04-28T15:19:13;100688.80;;;16.29;30.61
25510;BME280;13413;52.336;21.200;2023-04-28T15:22:06;100683.13;;;16.31;30.89
25510;BME280;13413;52.336;21.200;2023-04-28T15:24:58;100682.82;;;16.39;30.47
25510;BME280;13413;52.336;21.200;2023-04-28T15:27:50;100680.64;;;16.35;30.51
25510;BME280;13413;52.336;21.200;2023-04-28T15:30:42;100681.05;;;16.35;30.48
25510;BME280;13413;52.336;21.200;2023-04-28T15:33:34;100671.98;;;16.33;30.70
25510;BME280;13413;52.336;21.200;2023-04-28T15:36:26;100671.46;;;16.45;31.01
25510;BME280;13413;52.336;21.200;2023-04-28T15:39:18;100673.04;;;16.54;30.86
25510;BME280;13413;52.336;21.200;2023-04-28T15:42:11;100673.79;;;16.56;30.38
25510;BME280;13413;52.336;21.200;2023-04-28T15:45:03;100666.44;;;16.42;30.58
25510;BME280;13413;52.336;21.200;2023-04-28T15:53:25;100655.13;;;16.63;30.97
25510;BME280;13413;52.336;21.200;2023-04-28T15:56:17;100658.89;;;16.38;30.90
25510;BME280;13413;52.336;21.200;2023-04-28T15:59:09;100656.59;;;16.23;30.99
25510;BME280;13413;52.336;21.200;2023-04-28T16:05:12;100657.10;;;16.09;31.04
25510;BME280;13413;52.336;21.200;2023-04-28T16:08:05;100654.90;;;16.01;31.39
25510;BME280;13413;52.336;21.200;2023-04-28T16:10:58;100655.80;;;15.92;31.38
25510;BME280;13413;52.336;21.200;2023-04-28T16:13:50;100652.34;;;15.75;31.48
25510;BME280;13413;52.336;21.200;2023-04-28T16:16:42;100659.27;;;15.49;31.55